Time;durP1;ratioP1;P1;durP2;ratioP2;P2;SDS_P1;SDS_P2;PMS_P1;PMS_P2;Temp;Humidity;BMP_temperature;BMP_pressure;BME280_temperature;BME280_humidity;BME280_pressure;Samples;Min_cycle;Max_cycle;Signal;HPM_P1;HPM_P2
2022/07/20 00:02:16;;;;;;;20.35;6.53;;;;;;;23.96;44.78;101016.09;5022246;28;20036;-75
2022/07/20 00:04:42;;;;;;;16.00;5.88;;;;;;;23.92;45.97;101017.53;5026963;28;20037;-75
2022/07/20 00:07:07;;;;;;;14.85;5.97;;;;;;;23.88;46.46;101014.34;5029149;28;20041;-75
2022/07/20 00:12:16;;;;;;;22.90;8.05;;;;;;;23.79;47.03;101020.13;5031120;28;20611;-75
2022/07/20 00:14:42;;;;;;;23.27;9.07;;;;;;;23.73;47.22;101021.75;5030611;28;20029;-75
2022/07/20 00:17:07;;;;;;;18.58;6.68;;;;;;;23.65;48.57;101011.75;5023159;28;20036;-75
2022/07/20 00:19:32;;;;;;;21.58;7.78;;;;;;;23.59;48.67;101012.56;5031031;28;20032;-75
2022/07/20 00:21:58;;;;;;;44.20;18.42;;;;;;;23.51;49.82;101010.75;5027905;28;20026;-75
2022/07/20 00:24:23;;;;;;;24.05;9.38;;;;;;;23.45;48.43;101018.94;5031896;28;20385;-75
2022/07/20 00:26:48;;;;;;;27.85;11.07;;;;;;;23.35;51.14;101014.63;5029416;28;20053;-75
2022/07/20 00:29:14;;;;;;;24.40;8.80;;;;;;;23.31;49.17;101017.91;5031163;28;20025;-75
2022/07/20 00:31:39;;;;;;;36.72;13.45;;;;;;;23.22;50.27;101014.44;5029177;28;20384;-75
2022/07/20 00:34:04;;;;;;;23.05;7.95;;;;;;;23.15;50.61;101030.81;5031295;28;20025;-75
2022/07/20 00:36:30;;;;;;;19.02;7.10;;;;;;;23.13;45.48;101092.34;5028684;28;20033;-75
2022/07/20 00:38:55;;;;;;;15.85;6.50;;;;;;;23.22;42.13;101039.09;5031608;28;20026;-75
2022/07/20 00:41:20;;;;;;;19.30;6.40;;;;;;;23.27;43.46;101028.44;5028940;28;20050;-75
2022/07/20 00:44:01;;;;;;;17.48;7.35;;;;;;;23.29;46.81;101031.81;5030950;28;20499;-75
2022/07/20 00:46:28;;;;;;;22.45;7.85;;;;;;;23.27;48.04;101041.28;5015578;28;20125;-75
2022/07/20 00:48:54;;;;;;;21.08;7.60;;;;;;;23.23;47.48;101049.03;5028527;28;20033;-75
2022/07/20 00:51:19;;;;;;;20.73;8.45;;;;;;;23.21;45.31;101081.28;5014479;28;20026;-75
2022/07/20 00:53:45;;;;;;;20.00;6.93;;;;;;;23.23;43.48;101056.44;5030232;28;20083;-75
2022/07/20 00:56:11;;;;;;;20.75;7.95;;;;;;;23.21;43.84;101051.97;5029708;28;20086;-75
2022/07/20 00:58:36;;;;;;;18.60;6.63;;;;;;;23.20;45.45;101094.13;5028083;28;20033;-75
2022/07/20 01:01:02;;;;;;;20.10;7.20;;;;;;;23.23;41.73;101053.69;5029957;28;20040;-75
2022/07/20 01:03:27;;;;;;;23.73;9.77;;;;;;;23.23;45.39;101057.25;5018063;28;20367;-75
2022/07/20 01:05:53;;;;;;;21.30;8.02;;;;;;;23.18;46.63;101057.84;5029614;28;20087;-75
2022/07/20 01:08:18;;;;;;;21.52;8.05;;;;;;;23.13;45.22;101043.00;5028390;28;20386;-75
2022/07/20 01:10:44;;;;;;;19.95;7.80;;;;;;;23.09;45.17;101047.13;5030590;28;20021;-75
2022/07/20 01:13:09;;;;;;;19.50;6.80;;;;;;;23.03;47.66;101046.88;5029354;28;20029;-75
2022/07/20 01:15:34;;;;;;;15.40;6.72;;;;;;;22.99;45.97;101037.31;5029666;28;20083;-75
2022/07/20 01:17:59;;;;;;;16.23;6.72;;;;;;;22.95;46.66;101052.44;5022696;28;20040;-75
2022/07/20 01:20:25;;;;;;;15.77;6.88;;;;;;;22.91;46.14;101042.03;5026788;28;20032;-75
2022/07/20 01:22:50;;;;;;;18.23;6.88;;;;;;;22.83;49.01;101040.25;5030346;28;20098;-75
2022/07/20 01:25:16;;;;;;;18.35;6.72;;;;;;;22.77;49.52;101041.84;5030205;28;20049;-75
2022/07/20 01:27:41;;;;;;;16.38;7.07;;;;;;;22.69;47.88;101037.31;5025161;28;20121;-75
2022/07/20 01:30:07;;;;;;;17.80;6.93;;;;;;;22.62;48.79;101030.91;5027192;28;20151;-75
2022/07/20 01:32:33;;;;;;;17.17;6.97;;;;;;;22.63;45.56;101032.56;5028757;28;20104;-75
2022/07/20 01:34:59;;;;;;;15.23;6.38;;;;;;;22.60;48.84;101032.13;5019904;28;20504;-75
2022/07/20 01:37:25;;;;;;;18.30;7.53;;;;;;;22.59;48.33;101028.53;5041259;28;20466;-75
2022/07/20 01:39:51;;;;;;;17.15;6.70;;;;;;;22.55;49.16;101034.53;5028315;28;20029;-75
2022/07/20 01:42:16;;;;;;;21.15;7.03;;;;;;;22.53;48.52;101029.25;5017742;28;20028;-75
2022/07/20 01:44:42;;;;;;;18.55;6.93;;;;;;;22.50;48.15;101024.16;5025696;28;20064;-75
2022/07/20 01:47:07;;;;;;;19.33;6.82;;;;;;;22.47;50.34;101033.59;5015048;28;20084;-75
2022/07/20 01:49:32;;;;;;;18.35;7.53;;;;;;;22.46;48.60;101034.66;5024211;28;20385;-75
2022/07/20 01:51:57;;;;;;;15.63;6.88;;;;;;;22.42;49.29;101041.53;5014551;28;20037;-75
2022/07/20 01:54:23;;;;;;;19.90;7.70;;;;;;;22.36;49.21;101038.66;5030155;28;20436;-75
2022/07/20 01:56:48;;;;;;;19.92;7.10;;;;;;;22.33;50.30;101045.41;5028608;28;20116;-74
2022/07/20 01:59:13;;;;;;;17.92;6.43;;;;;;;22.28;50.71;101056.00;5029697;28;20021;-74
2022/07/20 02:01:39;;;;;;;18.63;7.47;;;;;;;22.24;48.15;101058.28;5030013;28;20075;-74
2022/07/20 02:04:04;;;;;;;18.00;7.43;;;;;;;22.24;46.65;101082.91;5024142;28;20033;-74
2022/07/20 02:06:30;;;;;;;18.10;7.22;;;;;;;22.29;44.86;101096.03;5028240;28;20397;-74
2022/07/20 02:08:55;;;;;;;18.77;7.25;;;;;;;22.34;43.97;101097.22;5028075;28;20436;-74
2022/07/20 02:11:21;;;;;;;18.80;7.03;;;;;;;22.38;44.54;101102.34;5030762;28;20049;-74
2022/07/20 02:13:46;;;;;;;21.98;8.27;;;;;;;22.42;45.29;101101.78;5030204;28;20021;-74
2022/07/20 02:16:14;;;;;;;20.67;9.07;;;;;;;22.44;46.31;101098.84;5034033;28;20477;-74
2022/07/20 02:18:40;;;;;;;18.95;8.80;;;;;;;22.46;46.28;101092.16;5020378;28;20101;-74
2022/07/20 02:21:05;;;;;;;28.05;10.40;;;;;;;22.47;47.27;101093.00;5030550;28;20117;-74
2022/07/20 02:23:30;;;;;;;25.38;10.32;;;;;;;22.48;47.25;101089.25;5027997;28;20028;-74
2022/07/20 02:25:55;;;;;;;21.73;10.15;;;;;;;22.45;49.49;101103.31;5033726;28;20049;-74
2022/07/20 02:28:21;;;;;;;24.13;12.00;;;;;;;22.41;49.60;101094.59;5032262;28;20377;-74
2022/07/20 02:30:46;;;;;;;25.20;12.80;;;;;;;22.41;49.00;101088.28;5033614;28;20037;-74
2022/07/20 02:33:11;;;;;;;26.33;11.80;;;;;;;22.39;49.75;101087.59;5032671;28;20041;-74
2022/07/20 02:35:37;;;;;;;22.90;13.13;;;;;;;22.39;50.51;101082.13;5020731;28;20402;-74
2022/07/20 02:38:02;;;;;;;26.10;12.68;;;;;;;22.32;51.60;101092.97;5032631;28;20083;-74
2022/07/20 02:40:27;;;;;;;28.77;13.55;;;;;;;22.27;53.22;101088.03;5033855;28;20026;-74
2022/07/20 02:42:53;;;;;;;26.92;14.77;;;;;;;22.26;53.53;101105.47;5032218;28;20033;-74
2022/07/20 02:45:18;;;;;;;27.05;14.95;;;;;;;22.26;54.29;101096.41;5031029;28;20045;-74
2022/07/20 02:47:45;;;;;;;27.83;17.33;;;;;;;22.22;55.66;101100.56;5024122;28;20025;-74
2022/07/20 02:50:11;;;;;;;30.25;18.58;;;;;;;22.19;56.05;101093.56;5027633;28;20038;-74
2022/07/20 02:52:38;;;;;;;30.95;19.42;;;;;;;22.19;56.70;101095.44;5025436;28;20068;-74
2022/07/20 02:55:04;;;;;;;31.50;19.73;;;;;;;22.19;57.20;101098.19;5032646;28;20052;-74
2022/07/20 02:57:29;;;;;;;29.95;19.55;;;;;;;22.15;58.46;101089.47;5031019;28;20503;-74
2022/07/20 02:59:54;;;;;;;35.83;20.42;;;;;;;22.13;59.16;101094.28;5032914;28;20017;-74
2022/07/20 03:02:19;;;;;;;38.33;21.30;;;;;;;22.10;59.05;101100.13;5020926;28;20037;-74
2022/07/20 03:04:44;;;;;;;29.38;20.98;;;;;;;22.08;59.27;101114.00;5033203;28;20478;-74
2022/07/20 03:07:10;;;;;;;33.78;20.52;;;;;;;22.02;59.81;101109.22;5027911;28;20033;-74
2022/07/20 03:09:35;;;;;;;32.55;22.30;;;;;;;22.00;61.10;101112.16;5031988;28;20017;-75
2022/07/20 03:12:00;;;;;;;32.28;21.60;;;;;;;21.98;60.92;101097.81;5033031;28;20030;-75
2022/07/20 03:14:26;;;;;;;30.88;22.85;;;;;;;21.96;61.41;101094.41;5033643;28;20378;-75
2022/07/20 03:16:51;;;;;;;37.38;22.67;;;;;;;21.93;62.55;101089.31;5031567;28;20033;-75
2022/07/20 03:19:17;;;;;;;38.22;24.30;;;;;;;21.91;62.09;101098.72;5029861;28;20479;-75
2022/07/20 03:21:42;;;;;;;31.83;22.77;;;;;;;21.87;62.77;101103.69;5025797;28;20033;-75
2022/07/20 03:24:07;;;;;;;36.30;24.30;;;;;;;21.80;63.42;101109.06;5032467;28;20022;-75
2022/07/20 03:26:32;;;;;;;34.83;22.85;;;;;;;21.77;63.34;101114.00;5030512;28;20413;-75
2022/07/20 03:28:58;;;;;;;39.20;24.95;;;;;;;21.73;63.77;101120.88;5032088;28;20055;-75
2022/07/20 03:31:23;;;;;;;34.28;24.42;;;;;;;21.70;64.21;101129.44;5029447;28;20028;-75
2022/07/20 03:33:48;;;;;;;35.13;25.20;;;;;;;21.69;64.36;101135.97;5027722;28;20440;-75
2022/07/20 03:36:13;;;;;;;37.83;25.27;;;;;;;21.66;64.74;101139.06;5029511;28;20056;-75
2022/07/20 03:38:39;;;;;;;36.58;26.10;;;;;;;21.63;65.26;101141.09;5032162;28;20032;-75
2022/07/20 03:41:04;;;;;;;37.80;24.67;;;;;;;21.61;65.26;101143.19;5029006;28;20029;-75
2022/07/20 03:43:29;;;;;;;39.20;24.70;;;;;;;21.58;65.67;101154.47;5032037;28;20037;-75
2022/07/20 03:45:55;;;;;;;44.20;26.77;;;;;;;21.55;65.86;101152.06;5023954;28;20038;-75
2022/07/20 03:48:20;;;;;;;37.42;26.15;;;;;;;21.53;66.53;101162.34;5019058;28;20026;-75
2022/07/20 03:50:46;;;;;;;39.00;27.67;;;;;;;21.52;66.26;101168.00;5028862;28;20029;-75
2022/07/20 03:53:13;;;;;;;38.13;27.67;;;;;;;21.50;66.83;101176.34;5025907;28;20136;-75
2022/07/20 03:55:38;;;;;;;36.25;26.83;;;;;;;21.50;67.87;101184.53;5020303;28;20090;-75
2022/07/20 03:58:03;;;;;;;42.03;27.83;;;;;;;21.47;68.01;101184.91;5027248;28;20034;-75
2022/07/20 04:00:29;;;;;;;38.25;26.80;;;;;;;21.46;67.52;101194.13;5032136;28;20125;-75
2022/07/20 04:02:54;;;;;;;39.67;29.48;;;;;;;21.44;67.56;101194.31;5031340;28;20056;-75
2022/07/20 04:05:19;;;;;;;37.67;27.38;;;;;;;21.43;67.68;101194.47;5027539;28;20108;-75
2022/07/20 04:07:45;;;;;;;37.13;29.75;;;;;;;21.42;67.67;101199.09;5018858;28;20033;-75
2022/07/20 04:10:10;;;;;;;36.70;26.65;;;;;;;21.41;67.47;101205.59;5012854;28;20053;-75
2022/07/20 04:12:35;;;;;;;37.83;29.08;;;;;;;21.39;67.06;101199.47;5021398;28;20068;-75
2022/07/20 04:15:00;;;;;;;43.95;28.33;;;;;;;21.40;67.14;101195.69;5028450;28;20030;-75
2022/07/20 04:17:26;;;;;;;35.13;28.17;;;;;;;21.40;66.93;101203.03;5025435;28;20025;-75
2022/07/20 04:19:51;;;;;;;38.58;27.67;;;;;;;21.41;67.38;101207.50;5028681;28;20029;-75
2022/07/20 04:22:17;;;;;;;36.00;27.08;;;;;;;21.42;67.10;101207.31;5025048;28;20021;-75
2022/07/20 04:24:42;;;;;;;38.05;27.48;;;;;;;21.44;66.74;101212.59;5028557;28;20392;-75
2022/07/20 04:27:07;;;;;;;34.80;26.48;;;;;;;21.46;66.66;101216.00;5021063;28;20040;-75
2022/07/20 04:29:33;;;;;;;39.40;27.10;;;;;;;21.47;66.99;101210.34;5025053;28;20096;-75
2022/07/20 04:31:58;;;;;;;38.78;26.50;;;;;;;21.49;66.21;101215.66;5024415;28;20034;-75
2022/07/20 04:34:24;;;;;;;36.92;26.98;;;;;;;21.50;66.48;101220.09;5024216;28;20022;-75
2022/07/20 04:36:49;;;;;;;34.67;24.63;;;;;;;21.53;66.60;101227.13;5029755;28;20071;-75
2022/07/20 04:39:15;;;;;;;35.42;24.80;;;;;;;21.54;66.02;101220.63;5027567;28;20025;-75
2022/07/20 04:41:41;;;;;;;36.35;25.80;;;;;;;21.56;66.06;101230.34;5024067;28;20044;-75
2022/07/20 04:44:06;;;;;;;33.28;25.00;;;;;;;21.58;66.05;101241.13;5027092;28;20026;-75
2022/07/20 04:46:32;;;;;;;34.15;23.92;;;;;;;21.59;66.22;101248.31;5024581;28;20673;-75
2022/07/20 04:48:57;;;;;;;31.48;23.63;;;;;;;21.60;65.89;101248.13;5029202;28;20023;-75
2022/07/20 04:51:22;;;;;;;36.17;23.92;;;;;;;21.62;66.44;101242.47;5025750;28;20022;-75
2022/07/20 04:53:48;;;;;;;39.78;23.48;;;;;;;21.63;66.11;101250.50;5028895;28;20076;-75
2022/07/20 04:56:14;;;;;;;34.80;24.08;;;;;;;21.63;65.99;101252.41;5030890;28;20457;-75
2022/07/20 04:58:39;;;;;;;34.75;23.58;;;;;;;21.63;66.38;101252.41;5029029;28;20030;-75
2022/07/20 05:01:05;;;;;;;34.50;23.02;;;;;;;21.64;65.58;101248.63;5024960;28;20103;-75
2022/07/20 05:03:30;;;;;;;36.05;24.52;;;;;;;21.62;65.44;101243.31;5029063;28;20014;-75
2022/07/20 05:05:56;;;;;;;29.40;23.00;;;;;;;21.62;65.39;101240.59;5021552;28;20075;-75
2022/07/20 05:08:21;;;;;;;29.05;21.98;;;;;;;21.62;65.68;101243.31;5024269;28;20037;-75
2022/07/20 05:10:46;;;;;;;35.22;23.52;;;;;;;21.61;65.95;101236.16;5026126;28;20061;-75
2022/07/20 05:13:11;;;;;;;33.17;22.48;;;;;;;21.62;65.35;101239.75;5031984;28;20033;-75
2022/07/20 05:15:37;;;;;;;32.15;22.23;;;;;;;21.62;66.78;101243.31;5030019;28;20037;-75
2022/07/20 05:18:02;;;;;;;32.00;22.85;;;;;;;21.62;65.48;101250.69;5019405;28;20037;-75
2022/07/20 05:20:27;;;;;;;39.58;21.08;;;;;;;21.64;65.71;101251.34;5019090;28;20378;-75
2022/07/20 05:22:53;;;;;;;32.83;22.67;;;;;;;21.64;65.88;101248.63;5030186;28;20485;-75
2022/07/20 05:25:18;;;;;;;34.78;21.85;;;;;;;21.64;66.12;101257.69;5028366;28;20052;-75
2022/07/20 05:27:43;;;;;;;32.88;21.92;;;;;;;21.65;65.39;101269.47;5027154;28;20069;-75
2022/07/20 05:30:09;;;;;;;32.20;21.60;;;;;;;21.67;65.48;101274.78;5029835;28;20025;-75
2022/07/20 05:32:34;;;;;;;32.72;20.73;;;;;;;21.68;65.19;101273.75;5025448;28;20452;-75
2022/07/20 05:35:00;;;;;;;33.22;20.88;;;;;;;21.69;65.00;101287.25;5021286;28;20510;-75
2022/07/20 05:37:25;;;;;;;31.52;20.98;;;;;;;21.71;64.94;101285.19;5026523;28;20092;-73
2022/07/20 05:39:50;;;;;;;34.38;21.17;;;;;;;21.73;64.61;101285.00;5030165;28;20036;-74
2022/07/20 05:42:16;;;;;;;33.17;21.45;;;;;;;21.75;65.19;101289.28;5025469;28;20448;-74
2022/07/20 05:44:41;;;;;;;32.17;20.63;;;;;;;21.79;65.09;101320.75;5023506;28;20071;-74
2022/07/20 05:47:06;;;;;;;33.03;20.42;;;;;;;21.83;64.91;101318.50;5028639;28;20028;-74
2022/07/20 05:49:33;;;;;;;32.05;20.00;;;;;;;21.87;63.97;101314.38;5024953;28;20034;-74
2022/07/20 05:51:58;;;;;;;30.58;19.33;;;;;;;21.91;64.39;101325.84;5023732;28;20025;-74
2022/07/20 05:54:24;;;;;;;29.98;18.23;;;;;;;21.94;63.37;101331.81;5030555;28;20036;-74
2022/07/20 05:56:49;;;;;;;27.85;17.58;;;;;;;21.99;63.60;101331.28;5035058;28;20401;-74
2022/07/20 05:59:14;;;;;;;28.75;18.27;;;;;;;22.02;63.80;101341.03;5027764;28;20021;-74
2022/07/20 06:01:44;;;;;;;28.35;18.33;;;;;;;22.07;63.46;101344.09;5022680;28;20029;-74
2022/07/20 06:04:13;;;;;;;30.20;18.85;;;;;;;22.09;64.03;101359.31;5018725;28;20032;-74
2022/07/20 06:06:39;;;;;;;;;;;;;;;22.15;63.10;101363.22;5019450;28;20040;-73
2022/07/20 06:09:05;;;;;;;28.15;18.48;;;;;;;22.14;62.46;101373.31;5026309;28;19917;-74
2022/07/20 06:11:31;;;;;;;29.60;17.38;;;;;;;22.16;63.11;101354.00;5037198;28;20021;-74
2022/07/20 06:13:56;;;;;;;28.20;17.92;;;;;;;22.16;63.14;101367.69;5029732;28;20099;-73
2022/07/20 06:16:22;;;;;;;26.98;16.50;;;;;;;22.18;62.91;101382.03;5014806;28;20022;-74
2022/07/20 06:18:47;;;;;;;30.05;17.70;;;;;;;22.21;62.69;101389.03;5016364;28;20133;-73
2022/07/20 06:21:14;;;;;;;26.58;15.60;;;;;;;22.22;63.33;101385.28;5015189;28;20025;-73
2022/07/20 06:23:40;;;;;;;28.10;16.58;;;;;;;22.24;62.67;101388.69;5015077;28;20033;-73
2022/07/20 06:26:05;;;;;;;29.13;17.25;;;;;;;22.27;62.83;101385.59;5029327;28;20042;-74
2022/07/20 06:28:30;;;;;;;28.83;16.45;;;;;;;22.31;62.74;101406.13;5022052;28;20034;-74
2022/07/20 06:30:56;;;;;;;26.42;15.82;;;;;;;22.33;62.84;101415.06;5017209;28;20029;-74
2022/07/20 06:33:21;;;;;;;34.78;17.58;;;;;;;22.34;62.45;101428.59;5028328;28;20100;-74
2022/07/20 06:35:46;;;;;;;31.42;17.13;;;;;;;22.35;62.46;101429.41;5033190;28;20358;-73
2022/07/20 06:38:12;;;;;;;28.20;16.52;;;;;;;22.36;62.24;101435.75;5026912;28;20037;-73
2022/07/20 06:40:37;;;;;;;25.88;15.35;;;;;;;22.34;62.42;101442.28;5022091;28;20041;-73
2022/07/20 06:43:02;;;;;;;26.48;14.90;;;;;;;22.34;63.32;101447.75;5033932;28;20044;-73
2022/07/20 06:45:27;;;;;;;26.70;15.80;;;;;;;22.36;63.67;101457.66;5034090;28;20068;-73
2022/07/20 06:47:53;;;;;;;29.88;16.65;;;;;;;22.34;62.53;101452.34;5028172;28;20032;-73
2022/07/20 06:50:18;;;;;;;27.05;17.40;;;;;;;22.32;62.16;101458.00;5024178;28;20021;-73
2022/07/20 06:52:43;;;;;;;28.13;16.42;;;;;;;22.32;62.50;101462.63;5032106;28;20067;-73
2022/07/20 06:55:09;;;;;;;27.95;16.83;;;;;;;22.32;61.75;101454.44;5034540;28;20021;-73
2022/07/20 06:57:34;;;;;;;32.13;16.30;;;;;;;22.32;62.24;101479.91;5020857;28;20083;-73
2022/07/20 06:59:59;;;;;;;27.80;16.75;;;;;;;22.32;61.73;101477.19;5023808;28;20013;-73
2022/07/20 07:02:24;;;;;;;25.05;15.60;;;;;;;22.33;61.85;101480.78;5024559;28;20033;-73
2022/07/20 07:04:50;;;;;;;27.98;15.27;;;;;;;22.33;61.39;101472.56;5028028;28;20477;-73
2022/07/20 07:07:15;;;;;;;27.63;16.15;;;;;;;22.32;61.48;101495.50;5030625;28;20025;-73
2022/07/20 07:09:41;;;;;;;27.10;16.75;;;;;;;22.34;62.36;101482.47;5032740;28;20025;-73
2022/07/20 07:12:06;;;;;;;27.73;16.25;;;;;;;22.36;62.96;101469.47;5032898;28;20813;-73
2022/07/20 07:14:32;;;;;;;25.67;15.13;;;;;;;22.39;62.49;101454.56;5031699;28;20041;-73
2022/07/20 07:16:57;;;;;;;27.88;15.13;;;;;;;22.43;62.88;101462.28;5040720;28;20432;-73
2022/07/20 07:19:22;;;;;;;27.63;15.52;;;;;;;22.49;62.02;101463.44;5030708;28;20029;-73
2022/07/20 07:21:48;;;;;;;28.52;16.67;;;;;;;22.54;62.69;101466.50;5030635;28;20156;-73
2022/07/20 07:24:13;;;;;;;26.63;16.13;;;;;;;22.64;62.82;101461.69;5031547;28;20481;-73
2022/07/20 07:26:38;;;;;;;27.92;15.77;;;;;;;22.72;62.88;101479.13;5033797;28;20064;-73
2022/07/20 07:29:04;;;;;;;27.80;14.30;;;;;;;22.75;62.69;101487.81;5031673;28;20413;-73
2022/07/20 07:31:29;;;;;;;28.13;15.00;;;;;;;22.78;61.05;101487.50;5032777;28;20029;-73
2022/07/20 07:33:54;;;;;;;26.27;15.13;;;;;;;22.83;61.06;101492.44;5039492;28;20079;-73
2022/07/20 07:36:20;;;;;;;28.65;15.10;;;;;;;22.90;61.52;101504.41;5032488;28;20039;-74
2022/07/20 07:38:45;;;;;;;25.90;15.02;;;;;;;22.94;60.60;101504.88;5020827;28;20473;-73
2022/07/20 07:41:10;;;;;;;27.35;14.45;;;;;;;22.98;60.68;101512.56;5037022;28;20022;-73
2022/07/20 07:43:36;;;;;;;24.55;15.35;;;;;;;23.02;60.80;101507.59;5022105;28;20113;-73
2022/07/20 07:46:02;;;;;;;29.52;14.50;;;;;;;23.08;60.66;101517.84;5020666;28;20421;-74
2022/07/20 07:48:27;;;;;;;26.60;14.68;;;;;;;23.15;60.81;101527.09;5022920;28;20117;-74
2022/07/20 07:50:52;;;;;;;26.33;14.98;;;;;;;23.21;61.25;101536.50;5020091;28;20044;-74
2022/07/20 07:53:18;;;;;;;26.17;13.35;;;;;;;23.26;59.77;101531.31;5016895;28;20033;-74
2022/07/20 07:55:43;;;;;;;28.17;14.20;;;;;;;23.27;58.46;101530.28;5022001;28;20029;-74
2022/07/20 07:58:10;;;;;;;28.20;13.65;;;;;;;23.33;59.20;101525.97;5024426;28;20040;-74
2022/07/20 08:00:36;;;;;;;27.42;13.07;;;;;;;23.36;58.76;101520.13;5021788;28;20044;-74
2022/07/20 08:03:02;;;;;;;22.48;12.15;;;;;;;23.41;57.57;101523.16;5021822;28;20026;-73
2022/07/20 08:05:28;;;;;;;22.25;11.35;;;;;;;23.43;58.88;101503.78;5028032;28;20059;-73
2022/07/20 08:07:54;;;;;;;24.13;12.32;;;;;;;23.49;57.88;101503.06;5029672;28;20037;-73
2022/07/20 08:10:19;;;;;;;27.10;12.50;;;;;;;23.52;57.70;101497.22;5031740;28;20448;-73
2022/07/20 08:12:45;;;;;;;23.40;12.75;;;;;;;23.55;58.40;101496.84;5019770;28;20044;-73
2022/07/20 08:15:11;;;;;;;27.30;12.45;;;;;;;23.61;57.36;101479.66;5017060;28;20029;-73
2022/07/20 08:17:36;;;;;;;27.98;14.27;;;;;;;23.66;57.78;101482.72;5027924;28;20052;-73
2022/07/20 08:20:05;;;;;;;22.88;13.07;;;;;;;23.67;56.54;101489.88;5028801;28;20025;-73
2022/07/20 08:22:30;;;;;;;22.95;11.52;;;;;;;23.66;58.12;101482.72;5019549;28;20097;-74
2022/07/20 08:24:56;;;;;;;25.25;13.40;;;;;;;23.70;57.72;101489.50;5030645;28;20132;-75
2022/07/20 08:27:21;;;;;;;26.73;13.63;;;;;;;23.74;58.03;101490.84;5029842;28;20029;-75
2022/07/20 08:29:47;;;;;;;23.75;12.40;;;;;;;23.77;58.09;101500.63;5031363;28;20032;-74
2022/07/20 08:32:13;;;;;;;24.48;12.90;;;;;;;23.80;57.63;101510.38;5029003;28;20026;-75
2022/07/20 08:34:38;;;;;;;22.75;13.07;;;;;;;23.79;57.66;101525.13;5032271;28;20048;-73
2022/07/20 08:37:03;;;;;;;22.65;11.50;;;;;;;23.80;58.54;101526.84;5032395;28;20041;-74
2022/07/20 08:39:29;;;;;;;21.55;13.40;;;;;;;23.85;57.16;101529.88;5018126;28;20382;-73
2022/07/20 08:41:54;;;;;;;25.08;13.60;;;;;;;23.92;57.57;101536.38;5027327;28;20033;-72
2022/07/20 08:44:19;;;;;;;25.13;14.20;;;;;;;23.95;57.29;101535.16;5030052;28;20034;-72
2022/07/20 08:46:45;;;;;;;24.17;12.48;;;;;;;23.95;57.97;101527.78;5032024;28;20029;-74
2022/07/20 08:49:14;;;;;;;24.75;12.85;;;;;;;23.96;58.61;101523.16;5016782;28;20030;-73
2022/07/20 08:51:40;;;;;;;24.83;13.45;;;;;;;24.00;56.83;101518.97;5021954;28;20036;-74
2022/07/20 08:54:05;;;;;;;23.88;13.27;;;;;;;24.00;58.31;101525.34;5029458;28;20022;-73
2022/07/20 08:56:31;;;;;;;30.80;14.10;;;;;;;24.01;58.34;101513.34;5030144;28;20124;-73
2022/07/20 08:58:58;;;;;;;24.02;13.45;;;;;;;24.04;57.20;101512.97;5028772;28;20095;-73
2022/07/20 09:01:24;;;;;;;30.25;13.57;;;;;;;24.04;57.99;101501.09;5029373;28;20112;-72
2022/07/20 09:04:10;;;;;;;25.38;13.70;;;;;;;24.02;58.55;101473.84;5015392;28;20525;-73
2022/07/20 09:06:45;;;;;;;25.80;12.68;;;;;;;23.97;58.42;101476.31;5019755;28;20029;-73
2022/07/20 09:09:11;;;;;;;25.70;14.30;;;;;;;23.96;59.32;101499.28;5032193;28;20026;-74
2022/07/20 09:11:36;;;;;;;23.75;13.85;;;;;;;23.95;57.38;101516.78;5032336;28;20025;-74
2022/07/20 09:14:02;;;;;;;24.70;14.00;;;;;;;23.95;59.45;101519.53;5030947;28;20045;-76
2022/07/20 09:16:40;;;;;;;27.15;13.45;;;;;;;23.94;60.28;101534.34;5029327;28;20044;-75
2022/07/20 09:19:06;;;;;;;26.20;13.95;;;;;;;23.97;61.15;101577.88;5031201;28;20564;-75
2022/07/20 09:21:32;;;;;;;24.58;13.50;;;;;;;24.01;59.89;101592.09;5016644;28;20029;-75
2022/07/20 09:24:05;;;;;;;25.35;12.98;;;;;;;24.01;58.85;101603.06;5030172;28;20030;-74
2022/07/20 09:26:31;;;;;;;25.23;13.85;;;;;;;24.02;59.35;101619.38;5033528;28;20124;-74
2022/07/20 09:28:57;;;;;;;25.52;13.90;;;;;;;24.02;59.53;101611.13;5035838;28;20453;-73
2022/07/20 09:31:36;;;;;;;36.33;14.20;;;;;;;24.05;59.72;101608.00;5032824;28;20052;-74
2022/07/20 09:34:09;;;;;;;27.42;13.18;;;;;;;24.10;58.98;101601.13;5042283;28;20466;-74
2022/07/20 09:36:38;;;;;;;23.88;12.68;;;;;;;24.10;58.90;101581.91;5036043;28;20392;-76
2022/07/20 09:39:29;;;;;;;26.23;13.45;;;;;;;24.17;58.79;101580.97;5035908;28;20101;-75
2022/07/20 09:41:56;;;;;;;25.05;13.05;;;;;;;24.21;59.67;101584.22;5021035;28;20041;-73
2022/07/20 09:44:24;;;;;;;26.05;12.50;;;;;;;24.16;58.29;101583.91;5039217;28;20022;-73
2022/07/20 09:46:50;;;;;;;22.88;13.20;;;;;;;24.25;59.76;101574.56;5031097;28;20497;-72
2022/07/20 09:49:15;;;;;;;23.80;13.70;;;;;;;24.31;58.87;101584.81;5024900;28;20074;-73
2022/07/20 09:51:43;;;;;;;25.50;13.40;;;;;;;24.40;58.44;101575.44;5026279;28;20033;-74
2022/07/20 09:54:15;;;;;;;23.50;12.90;;;;;;;24.39;58.53;101564.63;5030208;28;20118;-74
2022/07/20 09:56:44;;;;;;;23.70;11.52;;;;;;;24.47;58.30;101560.94;5035344;28;20523;-74
2022/07/20 09:59:11;;;;;;;24.35;13.10;;;;;;;24.57;58.79;101561.56;5031779;28;20028;-75
2022/07/20 10:01:39;;;;;;;23.55;12.15;;;;;;;24.53;57.45;101571.22;5029076;28;20119;-74
2022/07/20 10:04:07;;;;;;;21.90;12.10;;;;;;;24.62;56.96;101572.84;5032172;28;20032;-74
2022/07/20 10:06:34;;;;;;;22.98;12.27;;;;;;;24.66;55.97;101576.06;5028400;28;20040;-74
2022/07/20 10:09:00;;;;;;;22.75;11.70;;;;;;;24.69;56.13;101583.97;5029876;28;20447;-75
2022/07/20 10:11:26;;;;;;;26.30;11.75;;;;;;;24.76;56.37;101584.91;5033199;28;20032;-75
2022/07/20 10:13:54;;;;;;;24.75;11.63;;;;;;;24.82;55.88;101605.28;5027474;28;20110;-74
2022/07/20 10:16:38;;;;;;;22.75;11.73;;;;;;;24.87;55.44;101594.59;5029110;28;20075;-74
2022/07/20 10:19:06;;;;;;;23.30;12.52;;;;;;;24.89;55.80;101581.50;5025238;28;20057;-74
2022/07/20 10:21:42;;;;;;;23.17;10.65;;;;;;;24.87;55.94;101578.94;5029688;28;21472;-74
2022/07/20 10:24:15;;;;;;;25.27;11.50;;;;;;;24.87;56.22;101573.44;5034060;28;20044;-73
2022/07/20 10:26:41;;;;;;;25.77;11.90;;;;;;;24.87;54.95;101567.09;5026082;28;20429;-73
2022/07/20 10:29:06;;;;;;;21.20;11.95;;;;;;;24.97;56.86;101564.06;5026192;28;20560;-75
2022/07/20 10:31:49;;;;;;;20.88;9.93;;;;;;;24.94;56.49;101568.88;5025700;28;20098;-75
2022/07/20 10:34:40;;;;;;;20.45;10.63;;;;;;;25.00;55.42;101563.69;5046489;28;20040;-75
2022/07/20 10:37:21;;;;;;;21.60;10.27;;;;;;;25.08;55.45;101569.94;5029493;28;20048;-75
2022/07/20 10:39:47;;;;;;;21.17;11.60;;;;;;;25.15;53.45;101559.00;5025736;28;20842;-76
2022/07/20 10:42:30;;;;;;;21.75;11.10;;;;;;;25.15;54.71;101556.25;5027720;28;20021;-77
2022/07/20 10:45:15;;;;;;;21.52;10.00;;;;;;;25.16;55.55;101557.13;5032458;28;20040;-77
2022/07/20 10:47:50;;;;;;;22.05;9.93;;;;;;;25.18;54.93;101564.09;5022639;28;20028;-77
2022/07/20 10:50:30;;;;;;;25.52;11.15;;;;;;;25.26;54.67;101561.25;5024091;28;20029;-75
2022/07/20 10:53:15;;;;;;;26.33;11.13;;;;;;;25.28;54.87;101569.31;5043163;28;20033;-75
2022/07/20 10:55:51;;;;;;;21.85;10.32;;;;;;;25.40;55.48;101566.94;5019339;28;20038;-75
2022/07/20 10:58:23;;;;;;;22.25;10.27;;;;;;;25.49;57.02;101567.69;5030195;28;20040;-75
2022/07/20 11:00:54;;;;;;;21.02;10.25;;;;;;;25.50;54.79;101577.66;5033584;28;20021;-75
2022/07/20 11:03:44;;;;;;;24.33;10.88;;;;;;;25.60;55.10;101572.69;5035583;28;20433;-75
2022/07/20 11:06:18;;;;;;;21.77;10.40;;;;;;;25.65;54.75;101578.47;5035551;28;20492;-75
2022/07/20 11:08:48;;;;;;;20.10;9.95;;;;;;;25.72;53.86;101579.38;5036246;28;20025;-75
2022/07/20 11:11:16;;;;;;;23.27;9.07;;;;;;;25.78;54.40;101575.84;5034973;28;20140;-75
2022/07/20 11:13:42;;;;;;;20.30;9.33;;;;;;;25.84;54.38;101578.88;5034605;28;20029;-75